createdAt,value
2017-12-12T00:00:12.000Z,34.086
2017-12-12T00:10:12.000Z,34.257
2017-12-12T00:20:12.000Z,34.072
2017-12-12T00:30:12.000Z,33.875
2017-12-12T00:40:12.000Z,34.187
2017-12-12T00:50:12.000Z,34.164
2017-12-12T01:00:12.000Z,34.041
2017-12-12T01:10:12.000Z,34.18
2017-12-12T01:20:12.000Z,34.231
2017-12-12T01:30:12.000Z,34.284
2017-12-12T01:40:12.000Z,34.107
2017-12-12T01:50:12.000Z,34.235
2017-12-12T02:00:12.000Z,34.189
2017-12-12T02:10:12.000Z,34.372
2017-12-12T02:20:12.000Z,34.196
2017-12-12T02:30:12.000Z,34.465
2017-12-12T02:40:12.000Z,34.299
2017-12-12T02:50:12.000Z,34.297
2017-12-12T03:00:12.000Z,34.565
2017-12-12T03:10:13.000Z,34.327
2017-12-12T03:20:12.000Z,34.356
2017-12-12T03:30:12.000Z,34.328
2017-12-12T03:40:12.000Z,33.882
2017-12-12T03:50:12.000Z,34.412
2017-12-12T04:00:12.000Z,34.172
2017-12-12T04:10:12.000Z,34.289
2017-12-12T04:20:12.000Z,34.127
2017-12-12T04:30:12.000Z,34.524
2017-12-12T04:40:12.000Z,34.555
2017-12-12T04:50:12.000Z,34.328
2017-12-12T05:00:12.000Z,34.1
2017-12-12T05:10:12.000Z,34.143
2017-12-12T05:20:12.000Z,34.346
2017-12-12T05:30:12.000Z,34.043
2017-12-12T05:40:12.000Z,34.195
2017-12-12T05:50:12.000Z,34.289
2017-12-12T06:00:12.000Z,34.375
2017-12-12T06:10:13.000Z,34.321
2017-12-12T06:20:12.000Z,34.116
2017-12-12T06:30:12.000Z,34.255
2017-12-12T06:40:12.000Z,34.038
2017-12-12T06:50:12.000Z,33.995
2017-12-12T07:00:13.000Z,34.06
2017-12-12T07:10:13.000Z,34.081
2017-12-12T07:20:12.000Z,34.039
2017-12-12T07:30:13.000Z,33.919
2017-12-12T07:40:13.000Z,33.714
2017-12-12T07:50:13.000Z,33.756
2017-12-12T08:00:13.000Z,33.691
2017-12-12T08:10:13.000Z,33.778
2017-12-12T08:20:13.000Z,33.55
2017-12-12T08:30:13.000Z,33.485
2017-12-12T08:40:13.000Z,33.334
2017-12-12T08:50:13.000Z,33.269
2017-12-12T09:00:13.000Z,33.248
2017-12-12T09:10:13.000Z,33.171
2017-12-12T09:20:13.000Z,32.967
2017-12-12T09:30:13.000Z,32.913
2017-12-12T09:40:13.000Z,32.934
2017-12-12T09:50:13.000Z,31.974
2017-12-12T10:00:13.000Z,30.898
2017-12-12T10:10:13.000Z,31.532
2017-12-12T10:20:13.000Z,30.996
2017-12-12T10:30:13.000Z,31.273
2017-12-12T10:40:13.000Z,31.494
2017-12-12T10:50:13.000Z,31.704
2017-12-12T11:00:13.000Z,31.971
2017-12-12T11:10:13.000Z,32.005
2017-12-12T11:20:13.000Z,32.256
2017-12-12T11:30:13.000Z,32.117
2017-12-12T11:40:13.000Z,31.945
2017-12-12T11:50:13.000Z,32.239
2017-12-12T12:00:13.000Z,31.991
2017-12-12T12:10:13.000Z,32.223
2017-12-12T12:20:14.000Z,32.835
2017-12-12T12:30:13.000Z,32.863
2017-12-12T12:40:13.000Z,33.071
2017-12-12T12:50:13.000Z,33.017
2017-12-12T13:00:13.000Z,33.032
2017-12-12T13:10:13.000Z,32.859
2017-12-12T13:20:13.000Z,32.938
2017-12-12T13:30:13.000Z,32.758
2017-12-12T13:40:13.000Z,32.694
2017-12-12T13:50:14.000Z,32.519
2017-12-12T14:00:13.000Z,32.533
2017-12-12T14:10:13.000Z,32.882
2017-12-12T14:20:13.000Z,32.238
2017-12-12T14:30:13.000Z,32.077
2017-12-12T14:40:13.000Z,31.591
2017-12-12T14:50:13.000Z,31.258
2017-12-12T15:00:13.000Z,31.065
2017-12-12T15:10:13.000Z,32.276
2017-12-12T15:20:13.000Z,32.144
2017-12-12T15:30:13.000Z,32.104
2017-12-12T15:40:14.000Z,32.269
2017-12-12T15:50:14.000Z,32.206
2017-12-12T16:00:14.000Z,32.488
2017-12-12T16:10:14.000Z,32.651
2017-12-12T16:20:14.000Z,32.651
2017-12-12T16:30:14.000Z,32.652
2017-12-12T16:40:14.000Z,32.73
2017-12-12T16:50:14.000Z,32.709
2017-12-12T17:00:14.000Z,32.796
2017-12-12T17:10:14.000Z,32.984
2017-12-12T17:20:14.000Z,33.094
2017-12-12T17:30:14.000Z,32.935
2017-12-12T17:40:14.000Z,32.979
2017-12-12T17:50:14.000Z,32.947
2017-12-12T18:00:14.000Z,32.936
2017-12-12T18:10:14.000Z,32.904
2017-12-12T18:20:14.000Z,33.098
2017-12-12T18:30:14.000Z,37.242
2017-12-12T18:40:14.000Z,34.974
2017-12-12T18:50:14.000Z,34.752
2017-12-12T19:00:14.000Z,34.902
2017-12-12T19:10:14.000Z,34.947
2017-12-12T19:20:14.000Z,34.913
2017-12-12T19:30:14.000Z,34.901
2017-12-12T19:40:14.000Z,34.825
2017-12-12T19:50:14.000Z,34.607
2017-12-12T20:00:14.000Z,34.716
2017-12-12T20:10:14.000Z,34.956
2017-12-12T20:20:14.000Z,34.891
2017-12-12T20:30:14.000Z,34.93
2017-12-12T20:40:14.000Z,34.988
2017-12-12T20:50:14.000Z,34.772
2017-12-12T21:00:14.000Z,35.156
2017-12-12T21:10:14.000Z,34.62
2017-12-12T21:20:14.000Z,34.12
2017-12-12T21:30:14.000Z,34.37
2017-12-12T21:40:14.000Z,34.698
2017-12-12T21:50:14.000Z,34.479
2017-12-12T22:00:14.000Z,34.513
2017-12-12T22:10:14.000Z,34.427
2017-12-12T22:20:14.000Z,34.784
2017-12-12T22:30:15.000Z,34.771
2017-12-12T22:40:14.000Z,34.767
2017-12-12T22:50:14.000Z,34.731
2017-12-12T23:00:14.000Z,34.596
2017-12-12T23:10:14.000Z,34.568
2017-12-12T23:20:14.000Z,34.747
2017-12-12T23:30:14.000Z,34.689
2017-12-12T23:40:14.000Z,34.695
2017-12-12T23:50:14.000Z,34.855
